createdAt,value
2023-03-21T00:01:07.820Z,4.80
2023-03-21T00:03:37.167Z,3.70
2023-03-21T00:06:13.114Z,3.58
2023-03-21T00:08:43.751Z,2.97
2023-03-21T00:11:13.756Z,2.60
2023-03-21T00:13:44.741Z,2.33
2023-03-21T00:16:20.335Z,2.33
2023-03-21T00:18:56.457Z,2.05
2023-03-21T00:24:19.138Z,2.03
2023-03-21T00:26:49.200Z,2.00
2023-03-21T00:29:18.878Z,1.98
2023-03-21T00:31:49.399Z,1.88
2023-03-21T00:34:26.811Z,1.80
2023-03-21T00:37:09.432Z,1.80
2023-03-21T00:39:40.926Z,1.58
2023-03-21T00:42:13.419Z,1.52
2023-03-21T00:44:44.378Z,1.87
2023-03-21T00:47:15.084Z,2.00
2023-03-21T00:49:43.896Z,1.55
2023-03-21T00:52:24.540Z,1.95
2023-03-21T00:55:02.035Z,2.10
2023-03-21T00:57:38.555Z,2.15
2023-03-21T01:00:13.031Z,2.20
2023-03-21T01:03:04.404Z,2.00
2023-03-21T01:06:06.312Z,2.10
2023-03-21T01:08:55.274Z,1.90
2023-03-21T01:11:27.761Z,2.10
2023-03-21T01:14:14.714Z,2.10
2023-03-21T01:16:51.487Z,1.95
2023-03-21T01:19:30.875Z,1.90
2023-03-21T01:22:03.492Z,1.77
2023-03-21T01:24:35.574Z,1.90
2023-03-21T01:27:07.961Z,2.00
2023-03-21T01:29:37.036Z,1.90
2023-03-21T01:32:05.544Z,1.90
2023-03-21T01:34:35.306Z,1.70
2023-03-21T01:37:04.764Z,1.77
2023-03-21T01:39:45.019Z,1.80
2023-03-21T01:42:16.902Z,1.75
2023-03-21T01:45:07.282Z,1.80
2023-03-21T01:47:41.875Z,1.50
2023-03-21T01:50:26.110Z,1.58
2023-03-21T01:53:23.248Z,1.70
2023-03-21T01:55:52.885Z,1.50
2023-03-21T01:58:35.674Z,1.27
2023-03-21T02:01:12.094Z,1.83
2023-03-21T02:03:53.455Z,1.90
2023-03-21T02:06:49.972Z,1.60
2023-03-21T02:09:39.808Z,1.52
2023-03-21T02:12:16.795Z,1.60
2023-03-21T02:14:51.261Z,1.50
2023-03-21T02:18:03.399Z,1.45
2023-03-21T02:21:04.440Z,1.40
2023-03-21T02:23:49.648Z,1.70
2023-03-21T02:26:24.819Z,1.60
2023-03-21T02:29:11.301Z,1.50
2023-03-21T02:31:57.122Z,1.55
2023-03-21T02:35:00.801Z,1.75
2023-03-21T02:37:40.301Z,1.50
2023-03-21T02:40:25.838Z,1.70
2023-03-21T02:43:20.859Z,1.70
2023-03-21T02:46:03.205Z,1.75
2023-03-21T02:49:01.988Z,1.50
2023-03-21T02:51:35.514Z,1.50
2023-03-21T02:54:45.246Z,1.60
2023-03-21T02:57:05.167Z,1.52
2023-03-21T02:59:44.401Z,1.50
2023-03-21T03:02:24.865Z,1.60
2023-03-21T03:04:54.766Z,1.55
2023-03-21T03:07:34.493Z,1.50
2023-03-21T03:10:25.237Z,1.50
2023-03-21T03:12:56.965Z,1.60
2023-03-21T03:15:52.441Z,1.60
2023-03-21T03:18:34.434Z,1.40
2023-03-21T03:21:19.510Z,1.33
2023-03-21T03:23:56.953Z,1.50
2023-03-21T03:26:37.260Z,1.50
2023-03-21T03:29:11.995Z,1.77
2023-03-21T03:31:45.944Z,1.63
2023-03-21T03:34:24.875Z,1.50
2023-03-21T03:37:00.193Z,1.48
2023-03-21T03:39:39.935Z,1.48
2023-03-21T03:42:27.977Z,1.40
2023-03-21T03:45:13.526Z,1.27
2023-03-21T03:47:57.115Z,1.50
2023-03-21T03:50:56.813Z,1.50
2023-03-21T03:53:35.546Z,1.60
2023-03-21T03:56:10.725Z,1.70
2023-03-21T03:58:45.940Z,1.77
2023-03-21T04:01:20.470Z,1.85
2023-03-21T04:03:58.602Z,1.50
2023-03-21T04:06:33.165Z,1.60
2023-03-21T04:09:07.881Z,1.70
2023-03-21T04:11:43.262Z,1.70
2023-03-21T04:14:11.810Z,1.60
2023-03-21T04:16:41.580Z,1.55
2023-03-21T04:19:10.792Z,1.70
2023-03-21T04:21:40.836Z,1.50
2023-03-21T04:24:11.066Z,1.80
2023-03-21T04:26:41.839Z,1.40
2023-03-21T04:32:40.867Z,1.65
2023-03-21T04:35:13.647Z,1.58
2023-03-21T04:37:43.743Z,1.67
2023-03-21T04:40:18.723Z,1.65
2023-03-21T04:42:48.909Z,1.65
2023-03-21T04:45:18.827Z,1.80
2023-03-21T04:47:48.084Z,1.80
2023-03-21T04:50:17.984Z,1.60
2023-03-21T04:52:47.437Z,1.88
2023-03-21T04:55:16.701Z,1.63
2023-03-21T04:57:48.901Z,1.60
2023-03-21T05:00:18.120Z,1.60
2023-03-21T05:02:49.286Z,1.80
2023-03-21T05:05:19.061Z,1.63
2023-03-21T05:07:48.026Z,1.52
2023-03-21T05:10:17.009Z,1.50
2023-03-21T05:12:46.085Z,1.70
2023-03-21T05:15:15.643Z,1.63
2023-03-21T05:17:44.677Z,1.73
2023-03-21T05:20:16.686Z,1.60
2023-03-21T05:22:47.232Z,1.52
2023-03-21T05:25:19.577Z,1.60
2023-03-21T05:28:05.162Z,1.60
2023-03-21T05:30:34.140Z,1.45
2023-03-21T05:33:05.875Z,1.63
2023-03-21T05:35:35.647Z,1.88
2023-03-21T05:38:07.674Z,1.70
2023-03-21T05:40:52.454Z,1.60
2023-03-21T05:43:21.379Z,1.60
2023-03-21T05:45:49.902Z,1.95
2023-03-21T05:48:20.521Z,1.90
2023-03-21T05:51:09.703Z,1.60
2023-03-21T05:53:39.729Z,1.80
2023-03-21T05:56:09.771Z,2.00
2023-03-21T05:58:53.188Z,1.75
2023-03-21T06:01:23.957Z,1.80
2023-03-21T06:04:02.142Z,1.80
2023-03-21T06:06:32.924Z,1.73
2023-03-21T06:09:03.532Z,1.90
2023-03-21T06:11:37.027Z,1.75
2023-03-21T06:14:33.125Z,1.80
2023-03-21T06:17:19.352Z,1.70
2023-03-21T06:19:55.496Z,1.90
2023-03-21T06:22:35.127Z,2.10
2023-03-21T06:25:08.570Z,1.80
2023-03-21T06:27:39.731Z,2.08
2023-03-21T06:30:10.719Z,2.00
2023-03-21T06:32:47.715Z,1.90
2023-03-21T06:35:19.504Z,1.80
2023-03-21T06:37:49.843Z,1.85
2023-03-21T06:40:19.795Z,1.70
2023-03-21T06:42:48.903Z,2.00
2023-03-21T06:45:18.002Z,1.90
2023-03-21T06:47:47.454Z,2.05
2023-03-21T06:50:45.190Z,2.00
2023-03-21T06:53:13.560Z,1.90
2023-03-21T06:56:02.425Z,1.90
2023-03-21T06:58:34.179Z,1.80
2023-03-21T07:01:07.292Z,2.00
2023-03-21T07:03:44.336Z,2.00
2023-03-21T07:06:14.188Z,2.05
2023-03-21T07:08:43.532Z,2.10
2023-03-21T07:11:12.622Z,1.80
2023-03-21T07:13:42.083Z,1.95
2023-03-21T07:16:11.601Z,2.00
2023-03-21T07:18:41.197Z,2.03
2023-03-21T07:21:10.342Z,2.20
2023-03-21T07:23:41.905Z,1.98
2023-03-21T07:26:11.394Z,2.00
2023-03-21T07:28:41.914Z,2.28
2023-03-21T07:31:16.479Z,2.00
2023-03-21T07:33:45.284Z,2.17
2023-03-21T07:36:16.699Z,2.10
2023-03-21T07:38:50.329Z,1.98
2023-03-21T07:41:24.102Z,2.30
2023-03-21T07:43:52.942Z,2.00
2023-03-21T07:46:21.960Z,1.98
2023-03-21T07:48:51.564Z,2.38
2023-03-21T07:51:20.236Z,2.10
2023-03-21T07:53:49.573Z,2.20
2023-03-21T07:56:18.727Z,2.00
2023-03-21T07:58:48.481Z,2.10
2023-03-21T08:01:17.803Z,1.92
2023-03-21T08:03:48.935Z,2.05
2023-03-21T08:06:17.718Z,2.20
2023-03-21T08:08:47.537Z,2.42
2023-03-21T08:11:16.686Z,2.30
2023-03-21T08:13:45.315Z,2.42
2023-03-21T08:16:15.467Z,2.30
2023-03-21T08:18:44.860Z,2.17
2023-03-21T08:21:13.362Z,2.50
2023-03-21T08:23:41.833Z,2.15
2023-03-21T08:26:11.423Z,2.28
2023-03-21T08:28:41.268Z,2.10
2023-03-21T08:31:12.457Z,2.40
2023-03-21T08:33:42.168Z,2.60
2023-03-21T08:36:12.854Z,2.28
2023-03-21T08:38:41.743Z,2.50
2023-03-21T08:41:11.467Z,2.70
2023-03-21T08:43:40.678Z,2.60
2023-03-21T08:46:10.034Z,2.47
2023-03-21T08:48:39.931Z,2.50
2023-03-21T08:51:09.251Z,2.40
2023-03-21T08:53:37.548Z,2.60
2023-03-21T08:56:07.884Z,2.33
2023-03-21T08:58:37.425Z,2.58
2023-03-21T09:01:09.178Z,2.30
2023-03-21T09:03:43.166Z,2.28
2023-03-21T09:06:15.956Z,2.30
2023-03-21T09:08:48.031Z,2.35
2023-03-21T09:11:17.380Z,2.85
2023-03-21T09:13:45.732Z,2.60
2023-03-21T09:16:15.589Z,2.72
2023-03-21T09:18:51.653Z,2.40
2023-03-21T09:21:21.582Z,2.50
2023-03-21T09:23:53.552Z,2.60
2023-03-21T09:26:32.234Z,2.70
2023-03-21T09:29:01.747Z,2.75
2023-03-21T09:31:33.151Z,2.78
2023-03-21T09:34:02.831Z,2.80
2023-03-21T09:36:35.835Z,2.70
2023-03-21T09:39:04.858Z,2.55
2023-03-21T09:41:47.920Z,3.10
2023-03-21T09:44:35.762Z,2.78
2023-03-21T09:47:33.567Z,2.95
2023-03-21T09:50:20.932Z,2.85
2023-03-21T09:53:18.218Z,2.60
2023-03-21T09:55:48.314Z,2.80
2023-03-21T09:58:35.670Z,2.63
2023-03-21T10:01:23.256Z,2.60
2023-03-21T10:03:52.635Z,3.10
2023-03-21T10:06:30.719Z,3.20
2023-03-21T10:09:09.855Z,3.00
2023-03-21T10:11:47.349Z,3.20
2023-03-21T10:14:36.992Z,2.78
2023-03-21T10:17:38.246Z,2.75
2023-03-21T10:20:26.123Z,2.70
2023-03-21T10:23:00.045Z,3.08
2023-03-21T10:25:41.630Z,2.97
2023-03-21T10:28:19.977Z,3.10
2023-03-21T10:30:57.514Z,3.10
2023-03-21T10:33:43.612Z,2.92
2023-03-21T10:36:18.172Z,3.17
2023-03-21T10:39:13.035Z,3.40
2023-03-21T10:41:42.135Z,3.35
2023-03-21T10:44:17.683Z,3.22
2023-03-21T10:47:06.442Z,3.58
2023-03-21T10:50:05.748Z,3.38
2023-03-21T10:52:33.874Z,3.45
2023-03-21T10:55:18.142Z,3.50
2023-03-21T10:57:49.177Z,3.55
2023-03-21T11:00:32.686Z,3.35
2023-03-21T11:03:04.528Z,3.55
2023-03-21T11:05:41.564Z,3.60
2023-03-21T11:08:17.044Z,3.45
2023-03-21T11:11:09.847Z,3.45
2023-03-21T11:13:44.154Z,3.60
2023-03-21T11:16:39.753Z,3.60
2023-03-21T11:19:35.604Z,3.38
2023-03-21T11:22:09.337Z,3.83
2023-03-21T11:24:39.337Z,3.55
2023-03-21T11:27:09.653Z,3.78
2023-03-21T11:29:42.059Z,3.40
2023-03-21T11:32:14.011Z,3.80
2023-03-21T11:34:53.834Z,3.65
2023-03-21T11:37:29.579Z,3.25
2023-03-21T11:40:09.954Z,3.28
2023-03-21T11:42:48.940Z,3.83
2023-03-21T11:45:21.651Z,3.92
2023-03-21T11:47:55.642Z,3.97
2023-03-21T11:50:34.285Z,3.92
2023-03-21T11:53:22.039Z,4.20
2023-03-21T11:56:24.039Z,4.13
2023-03-21T11:59:18.323Z,4.35
2023-03-21T12:01:59.878Z,4.40
2023-03-21T12:04:32.897Z,4.80
2023-03-21T12:07:30.363Z,4.45
2023-03-21T12:10:44.350Z,4.32
2023-03-21T12:13:42.547Z,4.60
2023-03-21T12:16:37.998Z,4.85
2023-03-21T12:19:33.660Z,4.38
2023-03-21T12:22:09.907Z,4.50
2023-03-21T12:25:10.133Z,5.28
2023-03-21T12:28:05.019Z,4.68
2023-03-21T12:31:10.201Z,4.32
2023-03-21T12:33:50.288Z,4.38
2023-03-21T12:36:44.413Z,4.43
2023-03-21T12:39:25.598Z,4.80
2023-03-21T12:42:14.470Z,4.68
2023-03-21T12:44:56.427Z,4.60
2023-03-21T12:47:36.320Z,5.10
2023-03-21T12:50:29.698Z,4.35
2023-03-21T12:55:44.157Z,4.18
2023-03-21T12:58:20.323Z,4.28
2023-03-21T13:00:57.651Z,4.07
2023-03-21T13:03:41.150Z,4.45
2023-03-21T13:06:16.279Z,4.20
2023-03-21T13:09:09.516Z,4.32
2023-03-21T13:11:46.072Z,4.38
2023-03-21T13:14:33.443Z,4.38
2023-03-21T13:17:24.175Z,4.25
2023-03-21T13:20:21.444Z,4.03
2023-03-21T13:22:52.265Z,4.10
2023-03-21T13:25:24.427Z,4.25
2023-03-21T13:28:34.041Z,4.10
2023-03-21T13:31:50.697Z,5.05
2023-03-21T13:34:24.553Z,5.40
2023-03-21T13:37:05.842Z,4.72
2023-03-21T13:39:45.911Z,4.05
2023-03-21T13:42:28.619Z,3.40
2023-03-21T13:45:09.443Z,3.60
2023-03-21T13:47:49.020Z,3.35
2023-03-21T13:50:20.025Z,3.60
2023-03-21T13:53:17.930Z,3.13
2023-03-21T13:56:26.326Z,3.63
2023-03-21T13:59:47.833Z,3.13
2023-03-21T14:02:39.355Z,3.40
2023-03-21T14:05:22.699Z,3.22
2023-03-21T14:08:19.261Z,3.13
2023-03-21T14:11:04.084Z,3.00
2023-03-21T14:13:48.417Z,3.67
2023-03-21T14:16:28.942Z,3.55
2023-03-21T14:19:08.579Z,3.47
2023-03-21T14:21:41.243Z,3.45
2023-03-21T14:24:16.944Z,3.72
2023-03-21T14:26:57.432Z,3.65
2023-03-21T14:29:38.653Z,3.40
2023-03-21T14:32:24.626Z,3.40
2023-03-21T14:35:06.144Z,3.50
2023-03-21T14:37:52.265Z,3.30
2023-03-21T14:40:41.236Z,2.58
2023-03-21T14:43:16.945Z,2.63
2023-03-21T14:46:17.499Z,2.75
2023-03-21T14:48:48.548Z,2.53
2023-03-21T14:51:18.739Z,2.55
2023-03-21T14:53:53.299Z,2.78
2023-03-21T14:56:33.671Z,2.42
2023-03-21T14:59:18.444Z,2.30
2023-03-21T15:01:56.825Z,2.17
2023-03-21T15:04:42.705Z,1.92
2023-03-21T15:07:40.946Z,2.05
2023-03-21T15:10:22.292Z,1.77
2023-03-21T15:13:32.169Z,1.77
2023-03-21T15:16:18.334Z,2.00
2023-03-21T15:18:57.188Z,1.70
2023-03-21T15:21:54.343Z,2.00
2023-03-21T15:24:50.162Z,1.67
2023-03-21T15:27:34.272Z,1.33
2023-03-21T15:30:38.436Z,1.30
2023-03-21T15:33:28.872Z,1.40
2023-03-21T15:36:16.543Z,1.60
2023-03-21T15:39:26.323Z,1.27
2023-03-21T15:43:17.814Z,1.50
2023-03-21T15:46:05.052Z,1.35
2023-03-21T15:48:50.628Z,1.58
2023-03-21T15:51:36.647Z,1.90
2023-03-21T15:55:12.943Z,1.70
2023-03-21T15:58:14.320Z,1.25
2023-03-21T16:01:13.212Z,1.77
2023-03-21T16:03:51.281Z,1.73
2023-03-21T16:06:26.381Z,1.90
2023-03-21T16:09:12.354Z,1.60
2023-03-21T16:11:52.265Z,1.80
2023-03-21T16:14:25.061Z,1.42
2023-03-21T16:17:01.714Z,1.30
2023-03-21T16:19:38.000Z,1.42
2023-03-21T16:22:15.727Z,1.40
2023-03-21T16:24:49.148Z,1.50
2023-03-21T16:27:26.406Z,1.50
2023-03-21T16:30:01.034Z,1.30
2023-03-21T16:32:46.082Z,1.48
2023-03-21T16:35:18.434Z,1.50
2023-03-21T16:37:50.859Z,1.40
2023-03-21T16:40:37.392Z,1.30
2023-03-21T16:43:09.602Z,1.35
2023-03-21T16:45:46.490Z,1.30
2023-03-21T16:48:21.794Z,1.48
2023-03-21T16:50:57.535Z,1.50
2023-03-21T16:53:35.945Z,1.42
2023-03-21T16:56:22.582Z,1.40
2023-03-21T16:59:01.617Z,1.60
2023-03-21T17:01:41.482Z,1.50
2023-03-21T17:04:20.310Z,1.70
2023-03-21T17:07:02.349Z,1.60
2023-03-21T17:09:39.978Z,1.58
2023-03-21T17:12:18.266Z,1.50
2023-03-21T17:14:50.171Z,1.60
2023-03-21T17:17:21.985Z,1.40
2023-03-21T17:19:56.744Z,1.48
2023-03-21T17:22:34.115Z,1.50
2023-03-21T17:25:08.455Z,1.75
2023-03-21T17:27:49.853Z,1.40
2023-03-21T17:30:44.031Z,1.27
2023-03-21T17:33:16.902Z,1.42
2023-03-21T17:35:48.793Z,1.33
2023-03-21T17:38:18.446Z,1.50
2023-03-21T17:40:51.665Z,1.35
2023-03-21T17:43:26.220Z,1.33
2023-03-21T17:46:09.313Z,1.25
2023-03-21T17:48:41.496Z,1.38
2023-03-21T17:51:20.830Z,1.02
2023-03-21T17:53:53.865Z,1.27
2023-03-21T17:56:36.838Z,1.30
2023-03-21T17:59:13.094Z,1.27
2023-03-21T18:01:46.931Z,1.55
2023-03-21T18:04:18.420Z,1.20
2023-03-21T18:06:53.506Z,1.42
2023-03-21T18:09:27.005Z,1.50
2023-03-21T18:12:01.976Z,1.37
2023-03-21T18:14:40.440Z,1.27
2023-03-21T18:17:20.388Z,1.50
2023-03-21T18:19:57.358Z,1.45
2023-03-21T18:22:34.765Z,1.43
2023-03-21T18:25:10.725Z,1.30
2023-03-21T18:28:09.183Z,1.70
2023-03-21T18:33:36.803Z,1.52
2023-03-21T18:36:14.858Z,1.52
2023-03-21T18:38:48.771Z,1.50
2023-03-21T18:41:21.659Z,1.50
2023-03-21T18:44:05.126Z,1.50
2023-03-21T18:46:47.987Z,1.60
2023-03-21T18:52:09.091Z,1.77
2023-03-21T18:54:38.279Z,1.55
2023-03-21T18:59:59.971Z,1.55
2023-03-21T19:02:30.747Z,1.77
2023-03-21T19:05:02.019Z,1.70
2023-03-21T19:07:32.338Z,1.77
2023-03-21T19:10:17.071Z,1.83
2023-03-21T19:12:46.392Z,1.83
2023-03-21T19:15:18.292Z,1.50
2023-03-21T19:20:38.352Z,1.88
2023-03-21T19:23:10.189Z,2.03
2023-03-21T19:25:40.524Z,1.90
2023-03-21T19:28:10.306Z,1.80
2023-03-21T19:30:48.987Z,1.90
2023-03-21T19:33:21.045Z,1.70
2023-03-21T19:36:08.932Z,1.90
2023-03-21T19:38:41.667Z,1.65
2023-03-21T19:41:10.781Z,1.80
2023-03-21T19:43:52.853Z,1.60
2023-03-21T19:46:25.699Z,1.83
2023-03-21T19:48:57.312Z,1.75
2023-03-21T19:51:30.418Z,1.75
2023-03-21T19:54:05.359Z,1.90
2023-03-21T19:56:34.834Z,1.70
2023-03-21T19:59:04.106Z,1.80
2023-03-21T20:01:35.822Z,1.75
2023-03-21T20:04:04.899Z,1.75
2023-03-21T20:06:34.341Z,1.70
2023-03-21T20:11:56.946Z,1.73
2023-03-21T20:14:26.722Z,1.60
2023-03-21T20:16:57.681Z,1.70
2023-03-21T20:19:29.514Z,1.50
2023-03-21T20:22:02.190Z,1.60
2023-03-21T20:24:34.992Z,1.70
2023-03-21T20:27:06.455Z,1.90
2023-03-21T20:30:10.693Z,1.80
2023-03-21T20:32:29.907Z,1.67
2023-03-21T20:35:13.693Z,1.80
2023-03-21T20:37:50.348Z,1.60
2023-03-21T20:40:22.199Z,1.58
2023-03-21T20:42:51.688Z,1.75
2023-03-21T20:45:20.218Z,1.80
2023-03-21T20:47:50.138Z,1.60
2023-03-21T20:50:21.996Z,1.80
2023-03-21T20:53:05.912Z,1.80
2023-03-21T20:55:38.232Z,1.83
2023-03-21T20:58:30.040Z,1.70
2023-03-21T21:01:05.210Z,1.90
2023-03-21T21:03:42.055Z,1.90
2023-03-21T21:06:16.699Z,1.85
2023-03-21T21:08:47.864Z,2.00
2023-03-21T21:12:04.644Z,2.10
2023-03-21T21:14:08.330Z,2.10
2023-03-21T21:16:37.677Z,1.90
2023-03-21T21:19:06.354Z,1.80
2023-03-21T21:21:36.240Z,1.80
2023-03-21T21:24:07.604Z,1.83
2023-03-21T21:26:37.085Z,1.90
2023-03-21T21:29:07.736Z,1.60
2023-03-21T21:31:36.099Z,1.90
2023-03-21T21:34:06.125Z,1.90
2023-03-21T21:36:36.173Z,1.90
2023-03-21T21:39:06.929Z,1.58
2023-03-21T21:41:37.433Z,1.55
2023-03-21T21:44:07.838Z,2.00
2023-03-21T21:46:37.144Z,2.20
2023-03-21T21:49:06.148Z,2.33
2023-03-21T21:51:35.958Z,2.10
2023-03-21T21:54:08.291Z,1.98
2023-03-21T21:56:38.225Z,1.83
2023-03-21T21:59:08.192Z,1.80
2023-03-21T22:01:40.105Z,1.70
2023-03-21T22:04:11.996Z,1.90
2023-03-21T22:06:42.888Z,2.00
2023-03-21T22:09:12.275Z,2.17
2023-03-21T22:11:41.733Z,2.10
2023-03-21T22:14:10.113Z,2.00
2023-03-21T22:16:39.000Z,1.75
2023-03-21T22:19:09.498Z,2.22
2023-03-21T22:21:38.190Z,2.35
2023-03-21T22:24:08.254Z,2.47
2023-03-21T22:26:37.002Z,2.95
2023-03-21T22:29:08.961Z,3.05
2023-03-21T22:31:40.164Z,2.50
2023-03-21T22:34:09.569Z,2.15
2023-03-21T22:36:38.051Z,2.50
2023-03-21T22:39:09.072Z,3.40
2023-03-21T22:41:38.523Z,3.85
2023-03-21T22:44:08.638Z,4.75
2023-03-21T22:46:37.781Z,5.90
2023-03-21T22:49:06.904Z,4.97
2023-03-21T22:51:36.701Z,8.18
2023-03-21T22:54:05.953Z,4.53
2023-03-21T22:56:35.646Z,4.47
2023-03-21T22:59:04.459Z,3.80
2023-03-21T23:01:33.467Z,3.55
2023-03-21T23:04:02.540Z,4.10
2023-03-21T23:06:32.660Z,3.30
2023-03-21T23:09:02.762Z,2.92
2023-03-21T23:11:32.512Z,2.20
2023-03-21T23:14:07.933Z,2.25
2023-03-21T23:16:38.677Z,2.20
2023-03-21T23:19:11.003Z,2.42
2023-03-21T23:21:42.033Z,2.22
2023-03-21T23:24:11.781Z,2.10
2023-03-21T23:26:41.616Z,1.90
2023-03-21T23:29:11.744Z,2.35
2023-03-21T23:31:40.634Z,2.03
2023-03-21T23:34:09.760Z,2.30
2023-03-21T23:36:38.109Z,1.77
2023-03-21T23:39:08.028Z,2.05
2023-03-21T23:41:37.211Z,2.20
2023-03-21T23:44:06.872Z,2.10
2023-03-21T23:46:36.332Z,1.95
2023-03-21T23:49:05.466Z,1.80
2023-03-21T23:51:34.191Z,2.00
2023-03-21T23:54:04.044Z,2.10
2023-03-21T23:56:33.477Z,2.13
2023-03-21T23:59:02.452Z,2.40
